createdAt,value
2023-11-15T00:00:31.182Z,0.90
2023-11-15T00:02:59.010Z,0.93
2023-11-15T00:05:26.243Z,0.80
2023-11-15T00:07:53.388Z,0.88
2023-11-15T00:10:21.326Z,1.13
2023-11-15T00:12:48.820Z,0.90
2023-11-15T00:15:16.240Z,0.90
2023-11-15T00:17:44.361Z,0.80
2023-11-15T00:20:13.008Z,0.80
2023-11-15T00:22:41.751Z,1.20
2023-11-15T00:25:09.449Z,1.10
2023-11-15T00:27:37.344Z,1.30
2023-11-15T00:30:05.809Z,1.50
2023-11-15T00:32:32.855Z,1.37
2023-11-15T00:34:59.772Z,1.40
2023-11-15T00:37:26.614Z,1.77
2023-11-15T00:39:53.459Z,1.50
2023-11-15T00:42:20.302Z,1.60
2023-11-15T00:44:47.242Z,1.60
2023-11-15T00:47:14.219Z,1.75
2023-11-15T00:49:41.075Z,1.50
2023-11-15T00:52:07.959Z,1.58
2023-11-15T00:54:34.831Z,2.20
2023-11-15T00:57:01.706Z,1.80
2023-11-15T00:59:28.552Z,1.93
2023-11-15T01:01:55.485Z,1.90
2023-11-15T01:04:22.449Z,2.20
2023-11-15T01:06:49.368Z,2.40
2023-11-15T01:09:16.216Z,2.27
2023-11-15T01:11:43.231Z,2.40
2023-11-15T01:14:10.196Z,2.30
2023-11-15T01:16:37.142Z,2.53
2023-11-15T01:19:04.082Z,2.80
2023-11-15T01:21:31.122Z,2.60
2023-11-15T01:23:58.021Z,2.50
2023-11-15T01:26:24.952Z,2.95
2023-11-15T01:28:51.839Z,3.10
2023-11-15T01:31:18.731Z,2.70
2023-11-15T01:33:45.621Z,2.90
2023-11-15T01:36:12.550Z,2.60
2023-11-15T01:38:39.456Z,3.10
2023-11-15T01:41:06.496Z,2.80
2023-11-15T01:43:33.447Z,2.90
2023-11-15T01:46:01.472Z,3.30
2023-11-15T01:48:29.687Z,3.33
2023-11-15T01:50:57.097Z,3.30
2023-11-15T01:53:26.485Z,3.20
2023-11-15T01:55:53.454Z,3.17
2023-11-15T01:58:20.638Z,3.40
2023-11-15T02:00:47.566Z,3.60
2023-11-15T02:03:14.546Z,3.92
2023-11-15T02:05:41.555Z,3.47
2023-11-15T02:08:08.456Z,3.70
2023-11-15T02:10:35.407Z,4.00
2023-11-15T02:13:02.298Z,3.90
2023-11-15T02:15:29.251Z,3.83
2023-11-15T02:17:56.193Z,3.67
2023-11-15T02:20:23.131Z,3.47
2023-11-15T02:22:52.325Z,3.70
2023-11-15T02:25:19.599Z,3.60
2023-11-15T02:27:46.610Z,3.60
2023-11-15T02:30:13.738Z,3.40
2023-11-15T02:32:43.499Z,3.25
2023-11-15T02:35:10.825Z,3.13
2023-11-15T02:37:38.054Z,3.40
2023-11-15T02:40:05.493Z,3.50
2023-11-15T02:42:35.210Z,3.30
2023-11-15T02:45:02.343Z,3.50
2023-11-15T02:47:29.383Z,3.10
2023-11-15T02:49:56.306Z,3.15
2023-11-15T02:52:23.233Z,3.90
2023-11-15T02:54:50.247Z,3.90
2023-11-15T02:57:17.095Z,3.80
2023-11-15T02:59:43.991Z,3.38
2023-11-15T03:02:10.891Z,3.60
2023-11-15T03:04:37.786Z,3.67
2023-11-15T03:07:04.764Z,4.30
2023-11-15T03:09:31.651Z,3.50
2023-11-15T03:11:58.625Z,3.70
2023-11-15T03:14:25.537Z,3.53
2023-11-15T03:16:52.888Z,4.20
2023-11-15T03:19:19.814Z,3.67
2023-11-15T03:21:46.688Z,3.60
2023-11-15T03:24:13.608Z,3.50
2023-11-15T03:26:40.460Z,3.30
2023-11-15T03:29:07.345Z,3.58
2023-11-15T03:31:34.180Z,3.00
2023-11-15T03:34:01.111Z,3.10
2023-11-15T03:36:27.982Z,3.10
2023-11-15T03:38:54.874Z,2.92
2023-11-15T03:41:21.751Z,2.75
2023-11-15T03:43:48.594Z,2.70
2023-11-15T03:46:15.519Z,2.85
2023-11-15T03:48:42.418Z,2.70
2023-11-15T03:51:09.405Z,2.50
2023-11-15T03:53:36.467Z,2.50
2023-11-15T03:56:03.733Z,2.63
2023-11-15T03:58:30.596Z,2.55
2023-11-15T04:00:57.494Z,2.20
2023-11-15T04:03:24.545Z,2.35
2023-11-15T04:05:51.575Z,2.60
2023-11-15T04:08:18.604Z,2.30
2023-11-15T04:10:45.641Z,3.20
2023-11-15T04:13:12.529Z,2.70
2023-11-15T04:15:39.409Z,2.40
2023-11-15T04:18:06.446Z,2.25
2023-11-15T04:20:33.493Z,2.30
2023-11-15T04:23:00.395Z,2.35
2023-11-15T04:25:27.271Z,2.70
2023-11-15T04:27:54.149Z,2.60
2023-11-15T04:30:21.046Z,2.38
2023-11-15T04:32:47.989Z,2.50
2023-11-15T04:35:14.966Z,2.10
2023-11-15T04:37:41.823Z,2.60
2023-11-15T04:40:09.350Z,2.45
2023-11-15T04:42:36.828Z,2.30
2023-11-15T04:45:04.610Z,2.70
2023-11-15T04:47:32.218Z,2.00
2023-11-15T04:49:59.148Z,2.00
2023-11-15T04:52:25.995Z,2.20
2023-11-15T04:54:52.856Z,1.97
2023-11-15T04:57:19.694Z,2.10
2023-11-15T04:59:46.627Z,2.20
2023-11-15T05:02:13.569Z,2.10
2023-11-15T05:04:40.534Z,2.30
2023-11-15T05:07:07.582Z,2.03
2023-11-15T05:09:34.428Z,2.00
2023-11-15T05:12:01.360Z,2.40
2023-11-15T05:14:28.319Z,2.10
2023-11-15T05:16:55.260Z,2.40
2023-11-15T05:19:22.167Z,2.60
2023-11-15T05:21:49.019Z,2.30
2023-11-15T05:24:16.024Z,2.10
2023-11-15T05:26:42.953Z,2.40
2023-11-15T05:29:09.852Z,2.30
2023-11-15T05:31:36.796Z,2.90
2023-11-15T05:34:03.723Z,2.30
2023-11-15T05:36:30.557Z,2.20
2023-11-15T05:38:57.471Z,2.25
2023-11-15T05:41:27.750Z,2.22
2023-11-15T05:43:55.425Z,1.95
2023-11-15T05:46:22.317Z,2.10
2023-11-15T05:48:49.226Z,2.00
2023-11-15T05:51:16.121Z,2.13
2023-11-15T05:53:43.061Z,2.20
2023-11-15T05:56:09.917Z,2.20
2023-11-15T05:58:36.800Z,2.50
2023-11-15T06:01:03.974Z,2.15
2023-11-15T06:03:30.882Z,2.22
2023-11-15T06:05:57.855Z,2.30
2023-11-15T06:08:24.743Z,2.50
2023-11-15T06:10:51.715Z,2.30
2023-11-15T06:13:18.610Z,2.45
2023-11-15T06:15:45.579Z,2.30
2023-11-15T06:18:12.598Z,2.50
2023-11-15T06:20:39.677Z,2.50
2023-11-15T06:23:06.833Z,2.40
2023-11-15T06:25:33.714Z,2.50
2023-11-15T06:28:00.594Z,2.53
2023-11-15T06:30:27.572Z,2.40
2023-11-15T06:32:54.524Z,2.60
2023-11-15T06:35:21.441Z,2.40
2023-11-15T06:37:49.314Z,2.25
2023-11-15T06:40:17.184Z,2.40
2023-11-15T06:42:44.370Z,2.55
2023-11-15T06:45:11.990Z,2.78
2023-11-15T06:47:39.097Z,2.50
2023-11-15T06:50:06.657Z,2.78
2023-11-15T06:52:33.669Z,2.50
2023-11-15T06:55:00.968Z,2.30
2023-11-15T06:57:27.857Z,2.60
2023-11-15T06:59:54.784Z,2.72
2023-11-15T07:02:21.659Z,3.60
2023-11-15T07:04:48.518Z,3.40
2023-11-15T07:07:15.421Z,2.60
2023-11-15T07:09:42.307Z,2.92
2023-11-15T07:12:09.701Z,3.20
2023-11-15T07:14:36.630Z,4.68
2023-11-15T07:17:03.606Z,3.40
2023-11-15T07:19:30.485Z,3.47
2023-11-15T07:21:57.348Z,3.10
2023-11-15T07:24:24.602Z,3.00
2023-11-15T07:26:51.516Z,3.00
2023-11-15T07:29:18.713Z,2.75
2023-11-15T07:31:52.161Z,2.90
2023-11-15T07:34:20.741Z,2.60
2023-11-15T07:36:47.603Z,2.70
2023-11-15T07:39:14.517Z,4.00
2023-11-15T07:41:41.566Z,4.20
2023-11-15T07:44:08.483Z,4.60
2023-11-15T07:46:35.470Z,2.75
2023-11-15T07:49:02.452Z,2.40
2023-11-15T07:51:29.320Z,2.75
2023-11-15T07:53:56.205Z,2.40
2023-11-15T07:56:23.102Z,2.60
2023-11-15T07:58:49.976Z,2.28
2023-11-15T08:01:16.974Z,2.53
2023-11-15T08:03:43.965Z,2.45
2023-11-15T08:06:10.906Z,2.40
2023-11-15T08:08:38.276Z,2.40
2023-11-15T08:11:06.128Z,2.30
2023-11-15T08:13:33.168Z,2.85
2023-11-15T08:16:00.049Z,3.88
2023-11-15T08:18:26.974Z,2.42
2023-11-15T08:20:54.672Z,2.25
2023-11-15T08:23:21.644Z,2.33
2023-11-15T08:25:48.553Z,2.70
2023-11-15T08:28:15.482Z,2.40
2023-11-15T08:30:42.343Z,2.42
2023-11-15T08:33:09.342Z,2.60
2023-11-15T08:35:36.352Z,2.55
2023-11-15T08:38:03.273Z,2.88
2023-11-15T08:40:30.123Z,2.50
2023-11-15T08:42:57.245Z,2.70
2023-11-15T08:45:24.198Z,2.90
2023-11-15T08:47:51.329Z,2.60
2023-11-15T08:50:18.303Z,2.95
2023-11-15T08:52:45.272Z,3.90
2023-11-15T08:55:12.135Z,3.35
2023-11-15T08:57:42.808Z,2.88
2023-11-15T09:00:10.281Z,2.53
2023-11-15T09:02:37.223Z,2.97
2023-11-15T09:05:04.400Z,2.70
2023-11-15T09:07:31.282Z,2.90
2023-11-15T09:09:58.131Z,2.70
2023-11-15T09:12:25.216Z,2.60
2023-11-15T09:14:52.091Z,2.70
2023-11-15T09:17:18.958Z,2.60
2023-11-15T09:19:45.883Z,2.50
2023-11-15T09:22:12.764Z,2.70
2023-11-15T09:24:39.614Z,2.70
2023-11-15T09:27:06.651Z,2.60
2023-11-15T09:29:33.604Z,3.40
2023-11-15T09:32:00.515Z,3.40
2023-11-15T09:34:27.678Z,4.60
2023-11-15T09:36:54.876Z,4.72
2023-11-15T09:39:21.895Z,4.30
2023-11-15T09:41:55.762Z,4.90
2023-11-15T09:44:24.129Z,3.72
2023-11-15T09:46:55.036Z,3.60
2023-11-15T09:49:22.966Z,3.20
2023-11-15T09:51:50.111Z,2.95
2023-11-15T09:54:19.011Z,3.05
2023-11-15T09:56:47.007Z,2.70
2023-11-15T09:59:15.282Z,2.90
2023-11-15T10:01:46.811Z,2.70
2023-11-15T10:04:27.738Z,2.90
2023-11-15T10:07:03.248Z,2.70
2023-11-15T10:09:41.282Z,2.20
2023-11-15T10:12:09.283Z,2.40
2023-11-15T10:14:49.553Z,2.20
2023-11-15T10:17:16.440Z,2.30
2023-11-15T10:19:43.339Z,2.45
2023-11-15T10:22:10.237Z,2.75
2023-11-15T10:24:37.100Z,3.20
2023-11-15T10:27:11.294Z,2.30
2023-11-15T10:29:38.537Z,2.60
2023-11-15T10:32:06.035Z,2.50
2023-11-15T10:34:34.396Z,2.70
2023-11-15T10:37:08.300Z,2.40
2023-11-15T10:39:35.993Z,2.20
2023-11-15T10:42:03.633Z,2.20
2023-11-15T10:44:30.665Z,2.30
2023-11-15T10:47:02.853Z,1.90
2023-11-15T10:49:35.886Z,2.10
2023-11-15T10:52:03.419Z,2.00
2023-11-15T10:54:30.287Z,2.20
2023-11-15T10:57:01.411Z,2.10
2023-11-15T10:59:30.611Z,2.50
2023-11-15T11:01:58.741Z,2.50
2023-11-15T11:04:26.092Z,2.30
2023-11-15T11:07:01.626Z,4.13
2023-11-15T11:09:44.720Z,2.30
2023-11-15T11:12:13.967Z,6.45
2023-11-15T11:14:40.946Z,3.17
2023-11-15T11:17:32.510Z,2.22
2023-11-15T11:20:03.743Z,2.40
2023-11-15T11:22:30.605Z,2.20
2023-11-15T11:25:00.512Z,2.40
2023-11-15T11:27:30.358Z,2.15
2023-11-15T11:29:57.329Z,2.40
2023-11-15T11:32:28.724Z,2.10
2023-11-15T11:35:19.019Z,2.20
2023-11-15T11:37:47.075Z,2.60
2023-11-15T11:40:37.511Z,2.30
2023-11-15T11:43:22.144Z,2.20
2023-11-15T11:45:51.091Z,2.47
2023-11-15T11:48:20.508Z,2.50
2023-11-15T11:51:03.698Z,2.33
2023-11-15T11:53:30.927Z,2.30
2023-11-15T11:55:57.874Z,5.05
2023-11-15T11:58:27.541Z,6.95
2023-11-15T12:01:06.471Z,2.60
2023-11-15T12:03:35.597Z,2.40
2023-11-15T12:06:13.506Z,2.40
2023-11-15T12:08:42.263Z,4.03
2023-11-15T12:11:09.697Z,2.50
2023-11-15T12:13:43.270Z,4.00
2023-11-15T12:16:36.546Z,2.85
2023-11-15T12:19:07.610Z,2.50
2023-11-15T12:21:38.176Z,2.40
2023-11-15T12:24:06.347Z,2.30
2023-11-15T12:26:45.234Z,2.10
2023-11-15T12:29:18.536Z,2.20
2023-11-15T12:31:45.468Z,2.10
2023-11-15T12:34:13.489Z,1.90
2023-11-15T12:36:43.172Z,1.90
2023-11-15T12:39:10.076Z,2.40
2023-11-15T12:41:47.584Z,2.05
2023-11-15T12:44:14.883Z,1.83
2023-11-15T12:46:43.912Z,2.07
2023-11-15T12:49:12.269Z,6.18
2023-11-15T12:51:46.190Z,6.30
2023-11-15T12:54:13.116Z,1.70
2023-11-15T12:56:40.297Z,1.70
2023-11-15T12:59:08.068Z,1.60
2023-11-15T13:01:34.956Z,1.67
2023-11-15T13:04:02.045Z,1.45
2023-11-15T13:06:37.054Z,5.38
2023-11-15T13:09:04.180Z,2.00
2023-11-15T13:11:31.435Z,1.30
2023-11-15T13:13:58.617Z,1.40
2023-11-15T13:16:25.583Z,1.50
2023-11-15T13:18:52.561Z,1.60
2023-11-15T13:21:20.471Z,1.20
2023-11-15T13:23:48.826Z,1.10
2023-11-15T13:26:16.528Z,1.10
2023-11-15T13:28:48.186Z,0.95
2023-11-15T13:31:18.865Z,1.10
2023-11-15T13:33:46.354Z,1.63
2023-11-15T13:36:15.078Z,2.30
2023-11-15T13:38:42.321Z,1.70
2023-11-15T13:41:09.303Z,0.83
2023-11-15T13:43:36.723Z,0.90
2023-11-15T13:46:04.542Z,0.70
2023-11-15T13:48:32.061Z,0.90
2023-11-15T13:50:59.065Z,0.70
2023-11-15T13:53:25.956Z,0.70
2023-11-15T13:55:53.065Z,0.80
2023-11-15T13:58:19.900Z,0.60
2023-11-15T14:00:48.547Z,0.70
2023-11-15T14:03:15.528Z,1.20
2023-11-15T14:05:43.078Z,1.10
2023-11-15T14:08:10.408Z,1.10
2023-11-15T14:10:38.272Z,3.10
2023-11-15T14:13:06.248Z,6.22
2023-11-15T14:15:37.524Z,1.50
2023-11-15T14:18:05.228Z,1.10
2023-11-15T14:20:32.778Z,0.90
2023-11-15T14:22:59.961Z,0.77
2023-11-15T14:25:27.111Z,0.70
2023-11-15T14:27:57.522Z,0.80
2023-11-15T14:30:25.498Z,0.63
2023-11-15T14:32:52.939Z,0.68
2023-11-15T14:35:20.359Z,0.70
2023-11-15T14:37:49.848Z,0.70
2023-11-15T14:40:16.720Z,0.70
2023-11-15T14:42:44.746Z,0.60
2023-11-15T14:45:11.677Z,0.70
2023-11-15T14:47:38.698Z,0.60
2023-11-15T14:50:06.244Z,0.60
2023-11-15T14:52:34.760Z,0.68
2023-11-15T14:55:02.685Z,0.70
2023-11-15T14:57:29.530Z,0.60
2023-11-15T14:59:56.418Z,0.60
2023-11-15T15:02:23.294Z,0.50
2023-11-15T15:04:50.823Z,0.70
2023-11-15T15:07:17.767Z,0.80
2023-11-15T15:09:44.647Z,0.60
2023-11-15T15:12:11.582Z,0.77
2023-11-15T15:14:38.510Z,0.60
2023-11-15T15:17:09.222Z,0.70
2023-11-15T15:19:36.354Z,1.20
2023-11-15T15:22:03.279Z,1.70
2023-11-15T15:24:34.351Z,0.95
2023-11-15T15:27:01.470Z,1.00
2023-11-15T15:29:28.534Z,0.80
2023-11-15T15:31:55.452Z,0.95
2023-11-15T15:34:22.343Z,0.90
2023-11-15T15:36:49.257Z,0.90
2023-11-15T15:39:16.195Z,0.70
2023-11-15T15:41:43.097Z,0.70
2023-11-15T15:44:09.954Z,0.70
2023-11-15T15:46:36.902Z,0.60
2023-11-15T15:49:03.944Z,0.80
2023-11-15T15:51:30.895Z,0.70
2023-11-15T15:53:57.794Z,0.50
2023-11-15T15:56:24.673Z,0.77
2023-11-15T15:58:51.637Z,0.60
2023-11-15T16:01:18.533Z,0.70
2023-11-15T16:03:45.457Z,0.80
2023-11-15T16:06:12.429Z,1.10
2023-11-15T16:08:39.272Z,1.50
2023-11-15T16:11:06.158Z,1.80
2023-11-15T16:13:34.584Z,1.60
2023-11-15T16:16:01.828Z,1.20
2023-11-15T16:18:28.844Z,1.10
2023-11-15T16:20:55.815Z,3.72
2023-11-15T16:23:22.760Z,5.20
2023-11-15T16:25:49.621Z,2.17
2023-11-15T16:28:16.491Z,1.30
2023-11-15T16:30:43.520Z,8.50
2023-11-15T16:33:10.505Z,6.30
2023-11-15T16:35:37.486Z,2.92
2023-11-15T16:38:04.355Z,1.40
2023-11-15T16:40:31.265Z,1.83
2023-11-15T16:42:58.250Z,7.43
2023-11-15T16:45:25.260Z,3.70
2023-11-15T16:47:52.246Z,1.27
2023-11-15T16:50:19.228Z,1.23
2023-11-15T16:52:46.104Z,1.38
2023-11-15T16:55:12.978Z,1.08
2023-11-15T16:57:41.035Z,1.00
2023-11-15T17:00:09.022Z,0.80
2023-11-15T17:02:37.144Z,0.70
2023-11-15T17:05:04.704Z,0.80
2023-11-15T17:07:35.704Z,0.70
2023-11-15T17:10:03.867Z,0.80
2023-11-15T17:12:32.602Z,0.80
2023-11-15T17:15:01.010Z,0.90
2023-11-15T17:17:29.302Z,1.20
2023-11-15T17:19:58.466Z,1.00
2023-11-15T17:22:26.517Z,1.13
2023-11-15T17:24:54.353Z,1.17
2023-11-15T17:27:22.424Z,4.80
2023-11-15T17:29:50.508Z,1.50
2023-11-15T17:32:17.622Z,1.00
2023-11-15T17:34:46.117Z,1.75
2023-11-15T17:37:13.376Z,4.82
2023-11-15T17:39:41.107Z,3.00
2023-11-15T17:42:08.781Z,1.13
2023-11-15T17:44:36.361Z,1.10
2023-11-15T17:47:03.892Z,1.20
2023-11-15T17:49:31.168Z,1.10
2023-11-15T17:51:58.881Z,1.10
2023-11-15T17:54:26.317Z,1.00
2023-11-15T17:56:53.395Z,1.00
2023-11-15T17:59:20.400Z,1.15
2023-11-15T18:01:47.319Z,1.45
2023-11-15T18:04:14.338Z,2.10
2023-11-15T18:06:41.479Z,1.98
2023-11-15T18:09:09.135Z,2.40
2023-11-15T18:11:36.317Z,2.00
2023-11-15T18:14:03.252Z,1.80
2023-11-15T18:16:31.738Z,1.70
2023-11-15T18:18:59.365Z,2.00
2023-11-15T18:21:26.295Z,1.30
2023-11-15T18:23:53.280Z,2.00
2023-11-15T18:26:23.796Z,2.90
2023-11-15T18:28:50.687Z,2.15
2023-11-15T18:31:17.603Z,1.98
2023-11-15T18:33:44.629Z,1.70
2023-11-15T18:36:11.822Z,3.38
2023-11-15T18:38:38.841Z,4.00
2023-11-15T18:41:06.083Z,1.90
2023-11-15T18:43:32.917Z,1.80
2023-11-15T18:45:59.841Z,1.83
2023-11-15T18:48:27.085Z,2.00
2023-11-15T18:50:54.019Z,1.80
2023-11-15T18:53:20.978Z,1.80
2023-11-15T18:55:47.838Z,1.70
2023-11-15T18:58:14.739Z,1.75
2023-11-15T19:00:41.686Z,1.90
2023-11-15T19:03:08.722Z,2.15
2023-11-15T19:05:35.793Z,2.13
2023-11-15T19:08:02.780Z,2.47
2023-11-15T19:10:30.544Z,2.53
2023-11-15T19:12:57.455Z,2.40
2023-11-15T19:15:24.417Z,2.50
2023-11-15T19:17:51.967Z,2.40
2023-11-15T19:20:20.940Z,3.20
2023-11-15T19:22:48.946Z,3.10
2023-11-15T19:25:16.470Z,4.60
2023-11-15T19:27:43.865Z,3.78
2023-11-15T19:30:11.284Z,2.90
2023-11-15T19:32:38.462Z,3.25
2023-11-15T19:35:06.271Z,6.22
2023-11-15T19:37:33.112Z,4.30
2023-11-15T19:40:00.911Z,4.30
2023-11-15T19:42:29.052Z,4.00
2023-11-15T19:44:55.985Z,3.83
2023-11-15T19:47:22.913Z,3.45
2023-11-15T19:49:49.756Z,4.20
2023-11-15T19:52:16.710Z,3.55
2023-11-15T19:54:43.613Z,3.90
2023-11-15T19:57:10.479Z,4.00
2023-11-15T19:59:37.323Z,3.58
2023-11-15T20:02:04.431Z,3.60
2023-11-15T20:04:31.371Z,4.10
2023-11-15T20:07:01.732Z,4.00
2023-11-15T20:09:29.315Z,4.93
2023-11-15T20:11:57.380Z,3.60
2023-11-15T20:14:24.606Z,4.00
2023-11-15T20:16:52.277Z,3.70
2023-11-15T20:19:20.778Z,3.55
2023-11-15T20:21:48.589Z,3.97
2023-11-15T20:24:17.073Z,3.88
2023-11-15T20:26:43.961Z,4.20
2023-11-15T20:29:10.861Z,3.92
2023-11-15T20:31:38.119Z,3.90
2023-11-15T20:34:05.915Z,3.58
2023-11-15T20:36:37.870Z,3.80
2023-11-15T20:39:13.942Z,4.07
2023-11-15T20:41:45.212Z,4.00
2023-11-15T20:44:12.505Z,4.10
2023-11-15T20:46:39.418Z,3.95
2023-11-15T20:49:07.294Z,4.40
2023-11-15T20:51:35.057Z,4.32
2023-11-15T20:54:02.310Z,4.28
2023-11-15T20:56:29.239Z,4.38
2023-11-15T20:58:56.090Z,4.03
2023-11-15T21:01:23.064Z,4.30
2023-11-15T21:03:50.059Z,4.15
2023-11-15T21:06:17.312Z,4.20
2023-11-15T21:08:44.197Z,4.20
2023-11-15T21:11:11.046Z,4.38
2023-11-15T21:13:37.935Z,4.57
2023-11-15T21:16:05.203Z,4.60
2023-11-15T21:18:32.135Z,4.35
2023-11-15T21:20:59.191Z,4.70
2023-11-15T21:23:26.154Z,4.47
2023-11-15T21:25:53.026Z,4.80
2023-11-15T21:28:19.880Z,4.47
2023-11-15T21:30:46.786Z,4.60
2023-11-15T21:33:13.700Z,5.20
2023-11-15T21:35:40.644Z,5.05
2023-11-15T21:38:07.524Z,5.45
2023-11-15T21:40:34.686Z,5.50
2023-11-15T21:43:01.521Z,5.20
2023-11-15T21:45:28.461Z,5.70
2023-11-15T21:47:55.438Z,5.50
2023-11-15T21:50:22.620Z,5.57
2023-11-15T21:52:50.457Z,5.50
2023-11-15T21:55:17.471Z,5.53
2023-11-15T21:57:44.624Z,5.27
2023-11-15T22:00:11.939Z,5.30
2023-11-15T22:02:38.893Z,5.55
2023-11-15T22:05:06.106Z,5.35
2023-11-15T22:07:32.965Z,5.60
2023-11-15T22:09:59.829Z,5.50
2023-11-15T22:12:26.765Z,5.90
2023-11-15T22:14:53.684Z,5.93
2023-11-15T22:17:20.552Z,5.18
2023-11-15T22:19:47.398Z,5.90
2023-11-15T22:22:14.277Z,6.53
2023-11-15T22:24:41.133Z,5.50
2023-11-15T22:27:08.031Z,6.07
2023-11-15T22:29:34.933Z,6.25
2023-11-15T22:32:01.793Z,5.97
2023-11-15T22:34:28.713Z,6.40
2023-11-15T22:36:55.606Z,5.30
2023-11-15T22:39:22.504Z,5.25
2023-11-15T22:41:49.395Z,5.65
2023-11-15T22:44:16.329Z,5.53
2023-11-15T22:46:43.183Z,5.40
2023-11-15T22:49:10.073Z,6.07
2023-11-15T22:51:38.347Z,5.87
2023-11-15T22:54:05.549Z,5.30
2023-11-15T22:56:32.487Z,5.70
2023-11-15T22:58:59.425Z,5.10
2023-11-15T23:01:26.366Z,5.70
2023-11-15T23:03:53.706Z,6.00
2023-11-15T23:06:20.800Z,5.45
2023-11-15T23:08:48.270Z,5.82
2023-11-15T23:11:15.662Z,5.57
2023-11-15T23:13:43.275Z,5.82
2023-11-15T23:16:10.349Z,5.63
2023-11-15T23:18:37.256Z,5.30
2023-11-15T23:21:04.303Z,4.90
2023-11-15T23:23:31.259Z,5.83
2023-11-15T23:25:58.251Z,4.75
2023-11-15T23:28:25.124Z,5.00
2023-11-15T23:30:52.041Z,4.90
2023-11-15T23:33:18.968Z,4.90
2023-11-15T23:35:45.915Z,5.07
2023-11-15T23:38:12.779Z,4.93
2023-11-15T23:40:39.685Z,5.20
2023-11-15T23:43:06.514Z,4.93
2023-11-15T23:45:33.449Z,5.07
2023-11-15T23:48:00.413Z,4.60
2023-11-15T23:50:27.427Z,5.10
2023-11-15T23:52:54.804Z,3.97
2023-11-15T23:55:22.517Z,4.50
2023-11-15T23:57:49.792Z,4.50
